sensor_id;sensor_type;location;lat;lon;timestamp;pressure;altitude;pressure_sealevel;temperature;humidity
81299;BME280;70766;53.170;18.160;2023-08-24T00:00:47;101306.95;;;18.92;74.26
81299;BME280;70766;53.170;18.160;2023-08-24T00:03:32;101312.69;;;18.86;75.40
81299;BME280;70766;53.170;18.160;2023-08-24T00:06:00;101310.02;;;18.83;75.25
81299;BME280;70766;53.170;18.160;2023-08-24T00:08:29;101311.95;;;18.79;77.13
81299;BME280;70766;53.170;18.160;2023-08-24T00:10:57;101309.77;;;18.75;77.21
81299;BME280;70766;53.170;18.160;2023-08-24T00:13:25;101309.21;;;18.72;78.17
81299;BME280;70766;53.170;18.160;2023-08-24T00:15:54;101305.33;;;18.68;78.89
81299;BME280;70766;53.170;18.160;2023-08-24T00:18:22;101304.66;;;18.66;79.41
81299;BME280;70766;53.170;18.160;2023-08-24T00:20:50;101305.80;;;18.63;79.30
81299;BME280;70766;53.170;18.160;2023-08-24T00:23:19;101306.70;;;18.61;79.01
81299;BME280;70766;53.170;18.160;2023-08-24T00:25:47;101305.98;;;18.59;77.90
81299;BME280;70766;53.170;18.160;2023-08-24T00:28:15;101306.24;;;18.57;78.27
81299;BME280;70766;53.170;18.160;2023-08-24T00:30:43;101308.43;;;18.58;77.83
81299;BME280;70766;53.170;18.160;2023-08-24T00:33:11;101315.42;;;18.54;80.20
81299;BME280;70766;53.170;18.160;2023-08-24T00:35:40;101316.59;;;18.50;80.07
81299;BME280;70766;53.170;18.160;2023-08-24T00:38:08;101315.81;;;18.45;80.95
81299;BME280;70766;53.170;18.160;2023-08-24T00:40:36;101313.27;;;18.40;80.92
81299;BME280;70766;53.170;18.160;2023-08-24T00:43:04;101321.04;;;18.36;81.55
81299;BME280;70766;53.170;18.160;2023-08-24T00:45:32;101322.65;;;18.31;80.61
81299;BME280;70766;53.170;18.160;2023-08-24T00:48:02;101320.64;;;18.25;83.10
81299;BME280;70766;53.170;18.160;2023-08-24T00:50:31;101316.27;;;18.20;80.88
81299;BME280;70766;53.170;18.160;2023-08-24T00:52:59;101320.84;;;18.15;80.91
81299;BME280;70766;53.170;18.160;2023-08-24T00:55:27;101322.34;;;18.11;81.85
81299;BME280;70766;53.170;18.160;2023-08-24T00:57:56;101326.85;;;18.06;81.67
81299;BME280;70766;53.170;18.160;2023-08-24T01:00:26;101328.91;;;17.98;86.16
81299;BME280;70766;53.170;18.160;2023-08-24T01:02:54;101335.09;;;17.91;82.55
81299;BME280;70766;53.170;18.160;2023-08-24T01:05:23;101331.55;;;17.82;82.84
81299;BME280;70766;53.170;18.160;2023-08-24T01:07:52;101331.30;;;17.74;86.35
81299;BME280;70766;53.170;18.160;2023-08-24T01:10:20;101334.86;;;17.66;91.32
81299;BME280;70766;53.170;18.160;2023-08-24T01:13:08;101334.90;;;17.58;92.06
81299;BME280;70766;53.170;18.160;2023-08-24T01:15:49;101329.71;;;17.49;83.56
81299;BME280;70766;53.170;18.160;2023-08-24T01:18:21;101336.71;;;17.44;81.82
81299;BME280;70766;53.170;18.160;2023-08-24T01:20:53;101335.72;;;17.40;81.99
81299;BME280;70766;53.170;18.160;2023-08-24T01:26:32;101337.92;;;17.28;80.43
81299;BME280;70766;53.170;18.160;2023-08-24T01:29:01;101338.94;;;17.22;80.98
81299;BME280;70766;53.170;18.160;2023-08-24T01:31:29;101337.80;;;17.17;80.24
81299;BME280;70766;53.170;18.160;2023-08-24T01:33:58;101338.77;;;17.12;81.57
81299;BME280;70766;53.170;18.160;2023-08-24T01:36:27;101334.28;;;17.09;80.42
81299;BME280;70766;53.170;18.160;2023-08-24T01:39:11;101335.20;;;17.04;81.95
81299;BME280;70766;53.170;18.160;2023-08-24T01:41:44;101337.75;;;16.99;82.93
81299;BME280;70766;53.170;18.160;2023-08-24T01:44:17;101337.60;;;16.92;87.66
81299;BME280;70766;53.170;18.160;2023-08-24T01:46:49;101336.11;;;16.82;83.35
81299;BME280;70766;53.170;18.160;2023-08-24T01:49:19;101337.79;;;16.73;84.93
81299;BME280;70766;53.170;18.160;2023-08-24T01:51:48;101341.77;;;16.63;83.10
81299;BME280;70766;53.170;18.160;2023-08-24T01:54:17;101334.41;;;16.52;81.89
81299;BME280;70766;53.170;18.160;2023-08-24T01:56:45;101332.66;;;16.41;82.76
81299;BME280;70766;53.170;18.160;2023-08-24T01:59:14;101333.29;;;16.33;84.77
81299;BME280;70766;53.170;18.160;2023-08-24T02:01:42;101338.69;;;16.28;83.50
81299;BME280;70766;53.170;18.160;2023-08-24T02:04:10;101341.04;;;16.23;85.76
81299;BME280;70766;53.170;18.160;2023-08-24T02:06:38;101340.00;;;16.19;86.79
81299;BME280;70766;53.170;18.160;2023-08-24T02:09:07;101338.27;;;16.13;85.03
81299;BME280;70766;53.170;18.160;2023-08-24T02:11:35;101339.55;;;16.08;94.36
81299;BME280;70766;53.170;18.160;2023-08-24T02:14:03;101342.51;;;16.02;100.00
81299;BME280;70766;53.170;18.160;2023-08-24T02:16:36;101338.83;;;15.97;100.00
81299;BME280;70766;53.170;18.160;2023-08-24T02:19:06;101340.64;;;15.92;100.00
81299;BME280;70766;53.170;18.160;2023-08-24T02:21:37;101335.59;;;15.85;100.00
81299;BME280;70766;53.170;18.160;2023-08-24T02:24:06;101333.52;;;15.80;100.00
81299;BME280;70766;53.170;18.160;2023-08-24T02:26:34;101335.60;;;15.76;100.00
81299;BME280;70766;53.170;18.160;2023-08-24T02:29:02;101334.77;;;15.72;100.00
81299;BME280;70766;53.170;18.160;2023-08-24T02:31:31;101331.48;;;15.69;100.00
81299;BME280;70766;53.170;18.160;2023-08-24T02:34:00;101333.01;;;15.66;100.00
81299;BME280;70766;53.170;18.160;2023-08-24T02:36:28;101334.23;;;15.65;100.00
81299;BME280;70766;53.170;18.160;2023-08-24T02:39:00;101336.94;;;15.65;100.00
81299;BME280;70766;53.170;18.160;2023-08-24T02:41:28;101333.18;;;15.61;100.00
81299;BME280;70766;53.170;18.160;2023-08-24T02:43:57;101333.70;;;15.58;100.00
81299;BME280;70766;53.170;18.160;2023-08-24T02:46:25;101332.16;;;15.53;100.00
81299;BME280;70766;53.170;18.160;2023-08-24T02:48:53;101336.13;;;15.51;100.00
81299;BME280;70766;53.170;18.160;2023-08-24T02:51:22;101335.30;;;15.50;100.00
81299;BME280;70766;53.170;18.160;2023-08-24T02:53:50;101335.16;;;15.51;100.00
81299;BME280;70766;53.170;18.160;2023-08-24T02:56:20;101339.25;;;15.53;100.00
81299;BME280;70766;53.170;18.160;2023-08-24T02:58:49;101336.07;;;15.56;100.00
81299;BME280;70766;53.170;18.160;2023-08-24T03:01:17;101339.63;;;15.62;100.00
81299;BME280;70766;53.170;18.160;2023-08-24T03:03:46;101338.73;;;15.66;100.00
81299;BME280;70766;53.170;18.160;2023-08-24T03:06:14;101333.49;;;15.70;100.00
81299;BME280;70766;53.170;18.160;2023-08-24T03:08:42;101333.30;;;15.74;100.00
81299;BME280;70766;53.170;18.160;2023-08-24T03:11:12;101330.21;;;15.77;100.00
81299;BME280;70766;53.170;18.160;2023-08-24T03:13:40;101325.42;;;15.82;100.00
81299;BME280;70766;53.170;18.160;2023-08-24T03:16:08;101329.52;;;15.87;100.00
81299;BME280;70766;53.170;18.160;2023-08-24T03:18:37;101330.55;;;15.94;100.00
81299;BME280;70766;53.170;18.160;2023-08-24T03:21:05;101329.45;;;16.00;100.00
81299;BME280;70766;53.170;18.160;2023-08-24T03:23:34;101330.83;;;16.04;100.00
81299;BME280;70766;53.170;18.160;2023-08-24T03:26:02;101332.66;;;16.08;100.00
81299;BME280;70766;53.170;18.160;2023-08-24T03:28:31;101335.61;;;16.12;100.00
81299;BME280;70766;53.170;18.160;2023-08-24T03:31:00;101336.62;;;16.14;100.00
81299;BME280;70766;53.170;18.160;2023-08-24T03:33:29;101331.55;;;16.15;100.00
81299;BME280;70766;53.170;18.160;2023-08-24T03:35:58;101335.46;;;16.17;100.00
81299;BME280;70766;53.170;18.160;2023-08-24T03:38:27;101336.77;;;16.17;100.00
81299;BME280;70766;53.170;18.160;2023-08-24T03:41:03;101332.46;;;16.12;100.00
81299;BME280;70766;53.170;18.160;2023-08-24T03:43:32;101326.83;;;16.09;100.00
81299;BME280;70766;53.170;18.160;2023-08-24T03:46:02;101327.55;;;16.07;100.00
81299;BME280;70766;53.170;18.160;2023-08-24T03:48:32;101327.81;;;16.05;100.00
81299;BME280;70766;53.170;18.160;2023-08-24T03:51:01;101327.58;;;16.04;100.00
81299;BME280;70766;53.170;18.160;2023-08-24T03:53:29;101328.52;;;16.06;100.00
81299;BME280;70766;53.170;18.160;2023-08-24T03:55:57;101330.67;;;16.09;100.00
81299;BME280;70766;53.170;18.160;2023-08-24T03:58:25;101327.37;;;16.11;100.00
81299;BME280;70766;53.170;18.160;2023-08-24T04:00:53;101325.86;;;16.12;100.00
81299;BME280;70766;53.170;18.160;2023-08-24T04:03:22;101325.06;;;16.13;100.00
81299;BME280;70766;53.170;18.160;2023-08-24T04:05:50;101323.46;;;16.15;100.00
81299;BME280;70766;53.170;18.160;2023-08-24T04:08:19;101328.19;;;16.16;100.00
81299;BME280;70766;53.170;18.160;2023-08-24T04:10:47;101330.72;;;16.18;100.00
81299;BME280;70766;53.170;18.160;2023-08-24T04:13:15;101334.90;;;16.21;100.00
81299;BME280;70766;53.170;18.160;2023-08-24T04:15:43;101339.38;;;16.25;100.00
81299;BME280;70766;53.170;18.160;2023-08-24T04:18:12;101341.48;;;16.27;100.00
81299;BME280;70766;53.170;18.160;2023-08-24T04:20:40;101342.61;;;16.30;100.00
81299;BME280;70766;53.170;18.160;2023-08-24T04:23:08;101348.80;;;16.33;100.00
81299;BME280;70766;53.170;18.160;2023-08-24T04:25:40;101349.50;;;16.38;100.00
81299;BME280;70766;53.170;18.160;2023-08-24T04:28:09;101353.02;;;16.44;100.00
81299;BME280;70766;53.170;18.160;2023-08-24T04:30:37;101354.60;;;16.51;100.00
81299;BME280;70766;53.170;18.160;2023-08-24T04:33:07;101352.26;;;16.57;100.00
81299;BME280;70766;53.170;18.160;2023-08-24T04:35:35;101350.81;;;16.66;100.00
81299;BME280;70766;53.170;18.160;2023-08-24T04:38:04;101353.67;;;16.77;100.00
81299;BME280;70766;53.170;18.160;2023-08-24T04:40:52;101353.53;;;16.91;100.00
81299;BME280;70766;53.170;18.160;2023-08-24T04:43:23;101350.74;;;17.06;100.00
81299;BME280;70766;53.170;18.160;2023-08-24T04:45:55;101346.86;;;17.18;100.00
81299;BME280;70766;53.170;18.160;2023-08-24T04:48:24;101346.10;;;17.26;100.00
81299;BME280;70766;53.170;18.160;2023-08-24T04:50:53;101342.61;;;17.35;100.00
81299;BME280;70766;53.170;18.160;2023-08-24T04:53:24;101340.64;;;17.47;100.00
81299;BME280;70766;53.170;18.160;2023-08-24T04:55:52;101338.43;;;17.57;100.00
81299;BME280;70766;53.170;18.160;2023-08-24T04:58:21;101337.30;;;17.64;100.00
81299;BME280;70766;53.170;18.160;2023-08-24T05:00:49;101342.97;;;17.77;100.00
81299;BME280;70766;53.170;18.160;2023-08-24T05:03:17;101345.86;;;17.92;100.00
81299;BME280;70766;53.170;18.160;2023-08-24T05:05:46;101344.45;;;18.06;100.00
81299;BME280;70766;53.170;18.160;2023-08-24T05:08:15;101345.23;;;18.14;100.00
81299;BME280;70766;53.170;18.160;2023-08-24T05:10:43;101343.49;;;18.20;100.00
81299;BME280;70766;53.170;18.160;2023-08-24T05:13:11;101344.08;;;18.27;100.00
81299;BME280;70766;53.170;18.160;2023-08-24T05:15:40;101347.73;;;18.42;100.00
81299;BME280;70766;53.170;18.160;2023-08-24T05:18:08;101348.09;;;18.62;97.04
81299;BME280;70766;53.170;18.160;2023-08-24T05:20:36;101353.67;;;18.81;93.54
81299;BME280;70766;53.170;18.160;2023-08-24T05:23:04;101359.61;;;19.03;95.79
81299;BME280;70766;53.170;18.160;2023-08-24T05:25:32;101363.52;;;19.24;97.19
81299;BME280;70766;53.170;18.160;2023-08-24T05:28:02;101361.81;;;19.47;94.90
81299;BME280;70766;53.170;18.160;2023-08-24T05:30:31;101360.55;;;19.71;86.90
81299;BME280;70766;53.170;18.160;2023-08-24T05:32:59;101359.64;;;19.76;80.07
81299;BME280;70766;53.170;18.160;2023-08-24T05:35:27;101359.41;;;19.77;80.95
81299;BME280;70766;53.170;18.160;2023-08-24T05:37:56;101363.27;;;19.67;78.63
81299;BME280;70766;53.170;18.160;2023-08-24T05:40:24;101368.70;;;19.63;78.10
81299;BME280;70766;53.170;18.160;2023-08-24T05:42:53;101365.34;;;19.69;78.77
81299;BME280;70766;53.170;18.160;2023-08-24T05:45:21;101366.52;;;19.88;78.87
81299;BME280;70766;53.170;18.160;2023-08-24T05:47:53;101365.15;;;20.03;76.59
81299;BME280;70766;53.170;18.160;2023-08-24T05:50:22;101362.15;;;20.39;74.97
81299;BME280;70766;53.170;18.160;2023-08-24T05:52:50;101364.46;;;20.86;74.58
81299;BME280;70766;53.170;18.160;2023-08-24T05:55:19;101360.58;;;20.96;74.15
81299;BME280;70766;53.170;18.160;2023-08-24T05:57:47;101366.22;;;21.06;73.26
81299;BME280;70766;53.170;18.160;2023-08-24T06:00:17;101366.30;;;21.15;72.01
81299;BME280;70766;53.170;18.160;2023-08-24T06:02:45;101361.35;;;21.41;73.46
81299;BME280;70766;53.170;18.160;2023-08-24T06:05:13;101361.90;;;21.70;71.89
81299;BME280;70766;53.170;18.160;2023-08-24T06:07:41;101358.20;;;21.92;70.89
81299;BME280;70766;53.170;18.160;2023-08-24T06:10:10;101356.55;;;22.07;64.39
81299;BME280;70766;53.170;18.160;2023-08-24T06:12:38;101355.22;;;22.28;67.08
81299;BME280;70766;53.170;18.160;2023-08-24T06:15:07;101357.33;;;22.42;66.03
81299;BME280;70766;53.170;18.160;2023-08-24T06:17:39;101354.20;;;22.49;66.86
81299;BME280;70766;53.170;18.160;2023-08-24T06:20:08;101358.66;;;22.59;64.78
81299;BME280;70766;53.170;18.160;2023-08-24T06:22:39;101358.95;;;22.76;65.88
81299;BME280;70766;53.170;18.160;2023-08-24T06:25:08;101360.34;;;22.80;62.96
81299;BME280;70766;53.170;18.160;2023-08-24T06:27:37;101361.59;;;22.80;62.36
81299;BME280;70766;53.170;18.160;2023-08-24T06:30:06;101361.21;;;22.95;61.99
81299;BME280;70766;53.170;18.160;2023-08-24T06:32:35;101358.59;;;22.94;59.92
81299;BME280;70766;53.170;18.160;2023-08-24T06:35:05;101357.31;;;23.05;59.37
81299;BME280;70766;53.170;18.160;2023-08-24T06:37:35;101356.77;;;23.22;60.50
81299;BME280;70766;53.170;18.160;2023-08-24T06:40:03;101356.89;;;23.47;60.55
81299;BME280;70766;53.170;18.160;2023-08-24T06:42:33;101360.06;;;23.66;59.05
81299;BME280;70766;53.170;18.160;2023-08-24T06:45:02;101360.92;;;23.85;57.51
81299;BME280;70766;53.170;18.160;2023-08-24T06:47:30;101360.83;;;23.99;56.83
81299;BME280;70766;53.170;18.160;2023-08-24T06:49:59;101368.13;;;23.80;52.13
81299;BME280;70766;53.170;18.160;2023-08-24T06:52:28;101366.91;;;23.77;52.98
81299;BME280;70766;53.170;18.160;2023-08-24T06:54:59;101362.39;;;23.97;53.95
81299;BME280;70766;53.170;18.160;2023-08-24T06:57:27;101359.45;;;24.03;51.86
81299;BME280;70766;53.170;18.160;2023-08-24T06:59:56;101362.62;;;24.15;53.22
81299;BME280;70766;53.170;18.160;2023-08-24T07:02:24;101368.89;;;24.45;52.58
81299;BME280;70766;53.170;18.160;2023-08-24T07:04:52;101368.92;;;24.81;53.15
81299;BME280;70766;53.170;18.160;2023-08-24T07:07:21;101370.31;;;25.15;51.75
81299;BME280;70766;53.170;18.160;2023-08-24T07:09:50;101371.73;;;25.41;51.25
81299;BME280;70766;53.170;18.160;2023-08-24T07:12:18;101371.08;;;25.47;50.01
81299;BME280;70766;53.170;18.160;2023-08-24T07:14:47;101375.19;;;25.58;50.41
81299;BME280;70766;53.170;18.160;2023-08-24T07:17:15;101372.64;;;25.35;47.59
81299;BME280;70766;53.170;18.160;2023-08-24T07:19:43;101375.69;;;25.29;48.08
81299;BME280;70766;53.170;18.160;2023-08-24T07:22:12;101380.27;;;25.64;47.57
81299;BME280;70766;53.170;18.160;2023-08-24T07:24:42;101381.25;;;25.60;46.69
81299;BME280;70766;53.170;18.160;2023-08-24T07:27:13;101387.48;;;25.25;46.36
81299;BME280;70766;53.170;18.160;2023-08-24T07:29:42;101383.58;;;24.99;46.82
81299;BME280;70766;53.170;18.160;2023-08-24T07:32:12;101382.89;;;24.60;47.96
81299;BME280;70766;53.170;18.160;2023-08-24T07:34:44;101379.27;;;24.49;48.85
81299;BME280;70766;53.170;18.160;2023-08-24T07:37:12;101379.18;;;24.49;48.71
81299;BME280;70766;53.170;18.160;2023-08-24T07:39:41;101381.34;;;24.60;48.85
81299;BME280;70766;53.170;18.160;2023-08-24T07:42:09;101379.08;;;24.85;48.84
81299;BME280;70766;53.170;18.160;2023-08-24T07:44:37;101385.77;;;25.27;48.09
81299;BME280;70766;53.170;18.160;2023-08-24T07:47:05;101384.19;;;25.53;48.01
81299;BME280;70766;53.170;18.160;2023-08-24T07:49:34;101385.29;;;25.66;46.72
81299;BME280;70766;53.170;18.160;2023-08-24T07:52:02;101380.65;;;25.42;46.60
81299;BME280;70766;53.170;18.160;2023-08-24T07:54:30;101380.14;;;25.06;46.56
81299;BME280;70766;53.170;18.160;2023-08-24T07:56:58;101380.46;;;25.01;47.09
81299;BME280;70766;53.170;18.160;2023-08-24T07:59:27;101382.31;;;25.09;47.23
81299;BME280;70766;53.170;18.160;2023-08-24T08:01:55;101381.23;;;25.45;46.53
81299;BME280;70766;53.170;18.160;2023-08-24T08:04:23;101377.38;;;25.75;46.22
81299;BME280;70766;53.170;18.160;2023-08-24T08:06:51;101375.90;;;26.07;45.00
81299;BME280;70766;53.170;18.160;2023-08-24T08:09:19;101378.14;;;26.12;44.98
81299;BME280;70766;53.170;18.160;2023-08-24T08:11:47;101377.88;;;26.36;45.03
81299;BME280;70766;53.170;18.160;2023-08-24T08:14:15;101381.77;;;26.49;43.84
81299;BME280;70766;53.170;18.160;2023-08-24T08:16:44;101377.02;;;26.78;43.48
81299;BME280;70766;53.170;18.160;2023-08-24T08:19:12;101381.08;;;26.73;42.67
81299;BME280;70766;53.170;18.160;2023-08-24T08:21:40;101384.28;;;26.66;43.10
81299;BME280;70766;53.170;18.160;2023-08-24T08:24:08;101384.25;;;27.11;43.61
81299;BME280;70766;53.170;18.160;2023-08-24T08:26:36;101379.68;;;27.38;43.06
81299;BME280;70766;53.170;18.160;2023-08-24T08:29:05;101378.05;;;27.63;42.87
81299;BME280;70766;53.170;18.160;2023-08-24T08:31:34;101377.46;;;27.64;41.47
81299;BME280;70766;53.170;18.160;2023-08-24T08:34:03;101380.38;;;27.45;40.82
81299;BME280;70766;53.170;18.160;2023-08-24T08:36:32;101380.66;;;27.66;41.52
81299;BME280;70766;53.170;18.160;2023-08-24T08:39:00;101383.89;;;27.68;40.41
81299;BME280;70766;53.170;18.160;2023-08-24T08:41:33;101384.81;;;27.61;40.03
81299;BME280;70766;53.170;18.160;2023-08-24T08:44:06;101382.70;;;28.03;40.90
81299;BME280;70766;53.170;18.160;2023-08-24T08:46:34;101378.67;;;28.38;40.34
81299;BME280;70766;53.170;18.160;2023-08-24T08:49:03;101378.42;;;28.84;39.99
81299;BME280;70766;53.170;18.160;2023-08-24T08:51:36;101378.61;;;29.24;38.24
81299;BME280;70766;53.170;18.160;2023-08-24T08:54:05;101379.13;;;29.35;38.39
81299;BME280;70766;53.170;18.160;2023-08-24T08:56:33;101383.65;;;29.71;37.25
81299;BME280;70766;53.170;18.160;2023-08-24T08:59:04;101384.42;;;29.46;36.13
81299;BME280;70766;53.170;18.160;2023-08-24T09:01:36;101384.42;;;29.41;36.91
81299;BME280;70766;53.170;18.160;2023-08-24T09:04:06;101386.13;;;29.70;36.48
81299;BME280;70766;53.170;18.160;2023-08-24T09:06:35;101386.44;;;29.68;36.06
81299;BME280;70766;53.170;18.160;2023-08-24T09:09:04;101383.30;;;29.77;35.72
81299;BME280;70766;53.170;18.160;2023-08-24T09:11:33;101381.09;;;29.82;35.33
81299;BME280;70766;53.170;18.160;2023-08-24T09:14:02;101376.69;;;29.43;35.68
81299;BME280;70766;53.170;18.160;2023-08-24T09:16:30;101377.75;;;29.61;36.12
81299;BME280;70766;53.170;18.160;2023-08-24T09:18:58;101375.74;;;29.73;35.32
81299;BME280;70766;53.170;18.160;2023-08-24T09:21:26;101383.02;;;29.75;35.72
81299;BME280;70766;53.170;18.160;2023-08-24T09:23:56;101378.98;;;29.88;35.08
81299;BME280;70766;53.170;18.160;2023-08-24T09:26:32;101372.73;;;29.59;35.02
81299;BME280;70766;53.170;18.160;2023-08-24T09:29:10;101369.69;;;29.40;35.64
81299;BME280;70766;53.170;18.160;2023-08-24T09:31:42;101370.35;;;29.75;35.52
81299;BME280;70766;53.170;18.160;2023-08-24T09:34:13;101366.06;;;30.08;34.87
81299;BME280;70766;53.170;18.160;2023-08-24T09:36:41;101367.23;;;30.05;34.76
81299;BME280;70766;53.170;18.160;2023-08-24T09:39:10;101365.60;;;30.15;34.07
81299;BME280;70766;53.170;18.160;2023-08-24T09:44:07;101356.27;;;30.38;33.78
81299;BME280;70766;53.170;18.160;2023-08-24T09:46:36;101355.63;;;30.43;33.54
81299;BME280;70766;53.170;18.160;2023-08-24T09:49:07;101353.06;;;30.73;33.25
81299;BME280;70766;53.170;18.160;2023-08-24T09:51:37;101350.55;;;31.03;33.09
81299;BME280;70766;53.170;18.160;2023-08-24T09:54:07;101356.94;;;30.45;32.39
81299;BME280;70766;53.170;18.160;2023-08-24T09:56:38;101355.00;;;30.02;32.79
81299;BME280;70766;53.170;18.160;2023-08-24T09:59:12;101351.69;;;30.43;33.05
81299;BME280;70766;53.170;18.160;2023-08-24T10:01:48;101347.17;;;30.45;32.72
81299;BME280;70766;53.170;18.160;2023-08-24T10:04:24;101345.98;;;30.35;32.85
81299;BME280;70766;53.170;18.160;2023-08-24T10:07:03;101348.03;;;30.53;32.52
81299;BME280;70766;53.170;18.160;2023-08-24T10:12:28;101341.89;;;30.39;33.21
81299;BME280;70766;53.170;18.160;2023-08-24T10:15:00;101338.00;;;30.71;32.50
81299;BME280;70766;53.170;18.160;2023-08-24T10:17:31;101331.73;;;30.98;32.10
81299;BME280;70766;53.170;18.160;2023-08-24T10:20:01;101328.83;;;31.07;31.82
81299;BME280;70766;53.170;18.160;2023-08-24T10:22:35;101319.34;;;31.03;32.16
81299;BME280;70766;53.170;18.160;2023-08-24T10:25:05;101316.34;;;29.88;33.52
81299;BME280;70766;53.170;18.160;2023-08-24T10:27:35;101323.60;;;28.55;35.68
81299;BME280;70766;53.170;18.160;2023-08-24T10:30:04;101322.20;;;28.28;36.41
81299;BME280;70766;53.170;18.160;2023-08-24T10:32:34;101315.46;;;28.58;35.87
81299;BME280;70766;53.170;18.160;2023-08-24T10:35:02;101317.16;;;29.01;35.78
81299;BME280;70766;53.170;18.160;2023-08-24T10:37:31;101318.30;;;29.40;35.28
81299;BME280;70766;53.170;18.160;2023-08-24T10:40:05;101317.92;;;29.56;34.87
81299;BME280;70766;53.170;18.160;2023-08-24T10:42:44;101319.23;;;29.04;35.45
81299;BME280;70766;53.170;18.160;2023-08-24T10:45:14;101314.42;;;28.73;35.54
81299;BME280;70766;53.170;18.160;2023-08-24T10:47:45;101311.80;;;28.50;36.49
81299;BME280;70766;53.170;18.160;2023-08-24T10:50:14;101306.30;;;29.04;36.10
81299;BME280;70766;53.170;18.160;2023-08-24T10:52:43;101304.84;;;29.17;36.07
81299;BME280;70766;53.170;18.160;2023-08-24T10:55:23;101304.38;;;29.09;35.38
81299;BME280;70766;53.170;18.160;2023-08-24T10:57:59;101300.58;;;28.55;36.00
81299;BME280;70766;53.170;18.160;2023-08-24T11:00:29;101296.89;;;28.52;36.47
81299;BME280;70766;53.170;18.160;2023-08-24T11:02:58;101294.84;;;29.07;35.94
81299;BME280;70766;53.170;18.160;2023-08-24T11:05:32;101297.10;;;29.20;35.45
81299;BME280;70766;53.170;18.160;2023-08-24T11:08:01;101296.39;;;28.76;36.05
81299;BME280;70766;53.170;18.160;2023-08-24T11:13:18;101285.30;;;28.62;36.17
81299;BME280;70766;53.170;18.160;2023-08-24T11:15:51;101283.77;;;28.46;36.35
81299;BME280;70766;53.170;18.160;2023-08-24T11:18:25;101282.97;;;28.61;36.61
81299;BME280;70766;53.170;18.160;2023-08-24T11:21:02;101282.11;;;28.98;35.92
81299;BME280;70766;53.170;18.160;2023-08-24T11:23:31;101278.41;;;29.69;35.03
81299;BME280;70766;53.170;18.160;2023-08-24T11:26:01;101275.88;;;30.12;34.74
81299;BME280;70766;53.170;18.160;2023-08-24T11:28:30;101275.85;;;30.52;33.92
81299;BME280;70766;53.170;18.160;2023-08-24T11:31:00;101272.83;;;30.31;33.60
81299;BME280;70766;53.170;18.160;2023-08-24T11:33:30;101267.33;;;30.53;33.72
81299;BME280;70766;53.170;18.160;2023-08-24T11:36:01;101263.48;;;30.73;33.40
81299;BME280;70766;53.170;18.160;2023-08-24T11:38:42;101256.45;;;30.45;33.32
81299;BME280;70766;53.170;18.160;2023-08-24T11:41:12;101261.75;;;30.09;33.84
81299;BME280;70766;53.170;18.160;2023-08-24T11:43:45;101260.38;;;30.01;33.72
81299;BME280;70766;53.170;18.160;2023-08-24T11:46:15;101258.45;;;30.11;33.75
81299;BME280;70766;53.170;18.160;2023-08-24T11:48:44;101258.52;;;30.41;33.77
81299;BME280;70766;53.170;18.160;2023-08-24T11:51:13;101254.61;;;30.66;33.50
81299;BME280;70766;53.170;18.160;2023-08-24T11:53:46;101253.59;;;30.37;33.39
81299;BME280;70766;53.170;18.160;2023-08-24T11:56:15;101252.11;;;29.98;33.75
81299;BME280;70766;53.170;18.160;2023-08-24T11:58:49;101250.88;;;29.45;34.17
81299;BME280;70766;53.170;18.160;2023-08-24T12:01:18;101247.45;;;29.49;34.36
81299;BME280;70766;53.170;18.160;2023-08-24T12:03:47;101247.23;;;29.43;34.84
81299;BME280;70766;53.170;18.160;2023-08-24T12:06:16;101243.31;;;29.05;35.23
81299;BME280;70766;53.170;18.160;2023-08-24T12:08:46;101244.52;;;28.49;36.33
81299;BME280;70766;53.170;18.160;2023-08-24T12:11:20;101243.55;;;28.89;36.01
81299;BME280;70766;53.170;18.160;2023-08-24T12:13:50;101239.25;;;29.66;35.02
81299;BME280;70766;53.170;18.160;2023-08-24T12:16:20;101232.23;;;30.08;34.75
81299;BME280;70766;53.170;18.160;2023-08-24T12:18:54;101234.08;;;29.71;34.92
81299;BME280;70766;53.170;18.160;2023-08-24T12:21:23;101237.36;;;29.20;35.71
81299;BME280;70766;53.170;18.160;2023-08-24T12:24:13;101234.65;;;29.11;35.91
81299;BME280;70766;53.170;18.160;2023-08-24T12:26:42;101232.23;;;28.98;35.97
81299;BME280;70766;53.170;18.160;2023-08-24T12:29:10;101227.33;;;28.74;36.17
81299;BME280;70766;53.170;18.160;2023-08-24T12:31:42;101227.60;;;28.69;36.57
81299;BME280;70766;53.170;18.160;2023-08-24T12:34:14;101227.36;;;28.33;36.78
81299;BME280;70766;53.170;18.160;2023-08-24T12:36:43;101223.30;;;28.49;36.87
81299;BME280;70766;53.170;18.160;2023-08-24T12:39:12;101218.09;;;28.64;36.59
81299;BME280;70766;53.170;18.160;2023-08-24T12:41:41;101217.15;;;28.32;36.76
81299;BME280;70766;53.170;18.160;2023-08-24T12:44:09;101213.65;;;28.01;37.26
81299;BME280;70766;53.170;18.160;2023-08-24T12:46:42;101207.41;;;27.73;38.14
81299;BME280;70766;53.170;18.160;2023-08-24T12:49:10;101209.50;;;27.61;38.20
81299;BME280;70766;53.170;18.160;2023-08-24T12:51:38;101209.52;;;28.16;37.56
81299;BME280;70766;53.170;18.160;2023-08-24T12:54:09;101204.61;;;28.53;36.97
81299;BME280;70766;53.170;18.160;2023-08-24T12:56:41;101199.61;;;28.68;36.62
81299;BME280;70766;53.170;18.160;2023-08-24T12:59:09;101199.39;;;28.34;36.73
81299;BME280;70766;53.170;18.160;2023-08-24T13:01:38;101195.91;;;28.14;36.67